createdAt,value
2023-03-07T00:01:35.761Z,2.95
2023-03-07T00:04:02.338Z,2.13
2023-03-07T00:06:29.034Z,2.30
2023-03-07T00:08:58.148Z,2.35
2023-03-07T00:11:28.054Z,2.67
2023-03-07T00:13:54.856Z,2.55
2023-03-07T00:16:22.684Z,1.90
2023-03-07T00:18:49.582Z,2.30
2023-03-07T00:21:17.761Z,2.50
2023-03-07T00:23:53.496Z,2.70
2023-03-07T00:26:21.048Z,2.60
2023-03-07T00:28:49.408Z,2.60
2023-03-07T00:31:16.378Z,2.85
2023-03-07T00:33:44.395Z,2.50
2023-03-07T00:36:12.799Z,2.00
2023-03-07T00:38:39.367Z,2.60
2023-03-07T00:41:07.537Z,2.38
2023-03-07T00:43:35.416Z,2.47
2023-03-07T00:46:02.057Z,3.13
2023-03-07T00:48:29.271Z,2.40
2023-03-07T00:50:58.957Z,2.33
2023-03-07T00:53:25.428Z,2.42
2023-03-07T00:56:03.359Z,2.78
2023-03-07T00:58:31.091Z,3.33
2023-03-07T01:00:58.638Z,2.55
2023-03-07T01:03:25.810Z,2.83
2023-03-07T01:05:57.822Z,2.88
2023-03-07T01:08:30.409Z,3.15
2023-03-07T01:11:00.624Z,2.83
2023-03-07T01:13:28.396Z,2.90
2023-03-07T01:15:58.407Z,2.38
2023-03-07T01:18:24.853Z,2.83
2023-03-07T01:20:53.783Z,2.33
2023-03-07T01:23:20.271Z,2.75
2023-03-07T01:28:18.604Z,2.88
2023-03-07T01:30:45.081Z,3.50
2023-03-07T01:33:11.545Z,2.47
2023-03-07T01:35:38.625Z,2.90
2023-03-07T01:38:05.523Z,2.80
2023-03-07T01:40:32.442Z,3.05
2023-03-07T01:43:17.444Z,2.47
2023-03-07T01:45:46.735Z,2.28
2023-03-07T01:48:13.222Z,3.20
2023-03-07T01:50:39.727Z,3.05
2023-03-07T01:53:08.504Z,2.40
2023-03-07T01:55:37.088Z,2.63
2023-03-07T01:58:08.628Z,2.72
2023-03-07T02:03:10.215Z,2.67
2023-03-07T02:05:49.435Z,2.78
2023-03-07T02:08:16.570Z,2.67
2023-03-07T02:10:43.552Z,2.80
2023-03-07T02:13:11.037Z,2.60
2023-03-07T02:15:41.142Z,2.38
2023-03-07T02:18:08.932Z,3.13
2023-03-07T02:20:40.558Z,2.17
2023-03-07T02:23:07.812Z,2.40
2023-03-07T02:25:34.261Z,2.20
2023-03-07T02:28:04.296Z,2.40
2023-03-07T02:30:30.741Z,2.10
2023-03-07T02:32:59.491Z,3.13
2023-03-07T02:35:27.550Z,2.17
2023-03-07T02:37:56.934Z,2.13
2023-03-07T02:40:25.087Z,2.30
2023-03-07T02:42:52.608Z,2.38
2023-03-07T02:45:28.408Z,2.45
2023-03-07T02:47:54.866Z,2.70
2023-03-07T02:50:24.170Z,2.83
2023-03-07T02:52:50.623Z,2.22
2023-03-07T02:55:17.193Z,2.20
2023-03-07T02:57:43.662Z,2.25
2023-03-07T03:00:10.462Z,2.08
2023-03-07T03:02:36.972Z,2.20
2023-03-07T03:05:08.394Z,1.95
2023-03-07T03:07:40.696Z,2.30
2023-03-07T03:10:07.545Z,2.45
2023-03-07T03:12:34.147Z,1.98
2023-03-07T03:15:06.150Z,1.90
2023-03-07T03:17:32.598Z,1.90
2023-03-07T03:19:59.084Z,1.95
2023-03-07T03:22:25.515Z,2.03
2023-03-07T03:24:52.010Z,2.28
2023-03-07T03:27:18.589Z,2.20
2023-03-07T03:30:03.744Z,2.22
2023-03-07T03:32:30.747Z,2.20
2023-03-07T03:34:57.256Z,2.38
2023-03-07T03:37:24.552Z,2.20
2023-03-07T03:39:52.874Z,2.50
2023-03-07T03:42:23.998Z,3.10
2023-03-07T03:44:50.864Z,2.40
2023-03-07T03:47:21.293Z,2.13
2023-03-07T03:49:54.592Z,2.42
2023-03-07T03:52:24.548Z,2.17
2023-03-07T03:54:51.038Z,2.22
2023-03-07T03:57:17.449Z,2.63
2023-03-07T03:59:43.845Z,2.50
2023-03-07T04:02:10.342Z,2.63
2023-03-07T04:04:36.882Z,2.33
2023-03-07T04:07:03.413Z,3.08
2023-03-07T04:09:30.564Z,3.17
2023-03-07T04:11:57.210Z,2.83
2023-03-07T04:14:23.765Z,3.25
2023-03-07T04:19:33.289Z,3.03
2023-03-07T04:24:38.760Z,3.22
2023-03-07T04:27:05.248Z,3.53
2023-03-07T04:29:39.938Z,3.88
2023-03-07T04:32:06.588Z,3.22
2023-03-07T04:34:33.131Z,3.65
2023-03-07T04:36:59.637Z,3.70
2023-03-07T04:39:26.057Z,3.38
2023-03-07T04:41:52.530Z,4.07
2023-03-07T04:44:18.998Z,3.72
2023-03-07T04:46:56.010Z,3.60
2023-03-07T04:49:25.984Z,4.10
2023-03-07T04:51:58.754Z,3.25
2023-03-07T04:54:25.259Z,3.38
2023-03-07T04:56:51.712Z,3.75
2023-03-07T04:59:21.376Z,4.03
2023-03-07T05:01:51.199Z,4.32
2023-03-07T05:04:18.685Z,3.40
2023-03-07T05:06:45.142Z,3.97
2023-03-07T05:09:11.649Z,3.53
2023-03-07T05:11:38.693Z,3.78
2023-03-07T05:14:05.187Z,3.47
2023-03-07T05:16:31.744Z,3.78
2023-03-07T05:19:02.579Z,4.15
2023-03-07T05:21:29.792Z,4.22
2023-03-07T05:23:56.429Z,3.80
2023-03-07T05:26:22.887Z,4.47
2023-03-07T05:28:52.106Z,4.38
2023-03-07T05:31:19.676Z,4.03
2023-03-07T05:33:46.109Z,3.85
2023-03-07T05:36:13.604Z,3.90
2023-03-07T05:38:43.339Z,4.57
2023-03-07T05:41:13.607Z,4.45
2023-03-07T05:43:41.662Z,4.05
2023-03-07T05:46:08.124Z,4.15
2023-03-07T05:48:34.625Z,4.03
2023-03-07T05:51:20.106Z,3.60
2023-03-07T05:53:46.656Z,4.07
2023-03-07T05:56:13.221Z,4.00
2023-03-07T05:58:42.255Z,3.90
2023-03-07T06:01:15.789Z,3.85
2023-03-07T06:04:00.773Z,3.78
2023-03-07T06:06:37.021Z,3.35
2023-03-07T06:09:10.755Z,3.70
2023-03-07T06:11:37.255Z,3.70
2023-03-07T06:14:03.727Z,3.78
2023-03-07T06:16:30.168Z,3.78
2023-03-07T06:19:05.571Z,3.72
2023-03-07T06:21:31.949Z,3.53
2023-03-07T06:23:58.404Z,3.83
2023-03-07T06:26:24.824Z,3.63
2023-03-07T06:28:51.267Z,3.75
2023-03-07T06:31:18.633Z,3.97
2023-03-07T06:33:45.549Z,4.45
2023-03-07T06:36:13.168Z,3.50
2023-03-07T06:38:40.007Z,4.90
2023-03-07T06:41:06.700Z,3.50
2023-03-07T06:43:33.506Z,3.83
2023-03-07T06:46:00.126Z,4.45
2023-03-07T06:48:26.903Z,4.15
2023-03-07T06:50:53.414Z,3.58
2023-03-07T06:53:19.857Z,3.67
2023-03-07T06:55:50.138Z,3.75
2023-03-07T06:58:18.662Z,4.20
2023-03-07T07:00:45.319Z,3.38
2023-03-07T07:03:16.648Z,3.60
2023-03-07T07:05:43.286Z,3.47
2023-03-07T07:08:13.954Z,3.53
2023-03-07T07:10:41.163Z,3.80
2023-03-07T07:13:07.639Z,3.38
2023-03-07T07:15:34.060Z,3.25
2023-03-07T07:18:00.542Z,3.50
2023-03-07T07:20:27.023Z,3.60
2023-03-07T07:22:53.666Z,3.25
2023-03-07T07:25:20.124Z,3.20
2023-03-07T07:27:46.560Z,3.70
2023-03-07T07:30:13.137Z,3.47
2023-03-07T07:32:40.790Z,3.70
2023-03-07T07:35:07.462Z,3.33
2023-03-07T07:37:43.219Z,4.10
2023-03-07T07:40:10.181Z,3.55
2023-03-07T07:42:36.680Z,3.60
2023-03-07T07:45:03.340Z,3.47
2023-03-07T07:47:29.797Z,3.97
2023-03-07T07:52:36.660Z,3.60
2023-03-07T07:55:07.908Z,3.90
2023-03-07T07:57:34.301Z,3.42
2023-03-07T08:00:00.776Z,3.58
2023-03-07T08:05:21.353Z,3.55
2023-03-07T08:08:05.255Z,3.72
2023-03-07T08:10:55.730Z,3.72
2023-03-07T08:19:13.851Z,3.72
2023-03-07T08:21:54.422Z,4.00
2023-03-07T08:24:40.825Z,3.40
2023-03-07T08:27:32.543Z,3.45
2023-03-07T08:30:21.285Z,3.88
2023-03-07T08:33:07.880Z,3.75
2023-03-07T08:36:03.325Z,3.85
2023-03-07T08:41:34.613Z,3.80
2023-03-07T08:44:40.706Z,4.63
2023-03-07T08:50:56.804Z,4.05
2023-03-07T08:53:29.923Z,4.13
2023-03-07T08:56:10.625Z,3.70
2023-03-07T08:59:04.221Z,3.92
2023-03-07T09:04:41.711Z,3.30
2023-03-07T09:10:20.131Z,3.60
2023-03-07T09:13:33.166Z,3.45
2023-03-07T09:22:47.494Z,3.78
2023-03-07T09:25:08.466Z,3.30
2023-03-07T09:27:56.996Z,3.25
2023-03-07T09:33:33.204Z,3.42
2023-03-07T09:39:18.564Z,3.92
2023-03-07T09:49:09.475Z,3.15
2023-03-07T09:51:43.813Z,3.38
2023-03-07T09:57:34.379Z,3.03
2023-03-07T10:03:17.669Z,3.20
2023-03-07T10:05:55.292Z,3.45
2023-03-07T10:08:40.499Z,2.97
2023-03-07T10:11:50.127Z,3.00
2023-03-07T10:14:40.770Z,2.85
2023-03-07T10:20:49.234Z,2.83
2023-03-07T10:26:21.903Z,3.25
2023-03-07T10:29:02.826Z,2.67
2023-03-07T10:31:53.361Z,2.88
2023-03-07T10:36:30.814Z,2.50
2023-03-07T10:37:23.534Z,3.15
2023-03-07T10:40:06.337Z,3.33
2023-03-07T10:45:33.776Z,2.70
2023-03-07T10:48:14.498Z,2.90
2023-03-07T10:51:03.351Z,3.20
2023-03-07T10:53:37.070Z,3.38
2023-03-07T10:56:25.046Z,2.95
2023-03-07T10:59:20.542Z,3.80
2023-03-07T11:01:58.134Z,2.92
2023-03-07T11:04:34.827Z,2.58
2023-03-07T11:07:12.593Z,3.08
2023-03-07T11:09:56.528Z,3.28
2023-03-07T11:12:56.550Z,3.38
2023-03-07T11:15:42.766Z,2.78
2023-03-07T11:18:29.912Z,3.25
2023-03-07T11:21:19.252Z,3.53
2023-03-07T11:52:51.253Z,2.97
2023-03-07T11:55:38.288Z,3.95
2023-03-07T12:01:25.848Z,2.88
2023-03-07T12:07:25.794Z,3.70
2023-03-07T12:10:21.797Z,3.92
2023-03-07T12:15:25.198Z,3.67
2023-03-07T12:17:58.277Z,3.70
2023-03-07T12:20:30.984Z,3.80
2023-03-07T12:23:16.315Z,3.10
2023-03-07T12:25:45.192Z,3.63
2023-03-07T12:28:32.213Z,3.13
2023-03-07T12:30:58.887Z,3.42
2023-03-07T12:34:00.196Z,3.30
2023-03-07T12:36:30.112Z,2.88
2023-03-07T12:39:14.190Z,3.17
2023-03-07T12:42:15.151Z,3.03
2023-03-07T12:44:47.173Z,2.97
2023-03-07T12:47:20.216Z,3.03
2023-03-07T12:49:50.140Z,2.57
2023-03-07T12:52:47.056Z,2.60
2023-03-07T12:55:23.280Z,3.00
2023-03-07T12:58:17.227Z,3.13
2023-03-07T13:01:03.359Z,3.38
2023-03-07T13:04:06.732Z,3.38
2023-03-07T13:06:34.056Z,3.22
2023-03-07T13:09:11.094Z,3.50
2023-03-07T13:11:59.897Z,3.45
2023-03-07T13:14:50.096Z,3.10
2023-03-07T13:17:32.103Z,2.88
2023-03-07T13:20:05.077Z,2.65
2023-03-07T13:22:31.611Z,3.05
2023-03-07T13:25:19.021Z,3.30
2023-03-07T13:27:48.685Z,3.53
2023-03-07T13:30:21.337Z,3.53
2023-03-07T13:32:50.923Z,3.17
2023-03-07T13:35:32.722Z,4.10
2023-03-07T13:37:59.446Z,3.20
2023-03-07T13:40:34.958Z,3.58
2023-03-07T13:43:03.312Z,3.17
2023-03-07T13:45:41.696Z,3.20
2023-03-07T13:48:31.845Z,3.08
2023-03-07T13:51:01.663Z,3.03
2023-03-07T13:53:38.099Z,3.05
2023-03-07T13:56:17.004Z,2.78
2023-03-07T13:59:01.861Z,3.22
2023-03-07T14:01:42.179Z,2.97
2023-03-07T14:04:19.026Z,3.03
2023-03-07T14:06:59.996Z,2.83
2023-03-07T14:09:30.724Z,2.85
2023-03-07T14:11:57.441Z,3.17
2023-03-07T14:14:27.046Z,2.95
2023-03-07T14:20:05.458Z,2.80
2023-03-07T14:22:44.457Z,3.00
2023-03-07T14:25:21.810Z,3.15
2023-03-07T14:28:27.205Z,3.20
2023-03-07T14:31:04.157Z,3.25
2023-03-07T14:33:36.295Z,2.97
2023-03-07T14:36:16.786Z,2.63
2023-03-07T14:38:44.427Z,2.70
2023-03-07T14:41:20.394Z,3.17
2023-03-07T14:43:46.988Z,2.85
2023-03-07T14:46:24.000Z,2.60
2023-03-07T14:49:09.449Z,2.97
2023-03-07T14:51:48.429Z,2.60
2023-03-07T14:54:26.146Z,2.70
2023-03-07T14:57:01.221Z,2.95
2023-03-07T15:02:18.173Z,2.72
2023-03-07T15:04:44.862Z,2.80
2023-03-07T15:07:20.162Z,2.97
2023-03-07T15:09:46.789Z,3.15
2023-03-07T15:12:27.999Z,2.65
2023-03-07T15:14:58.041Z,2.50
2023-03-07T15:17:39.553Z,2.83
2023-03-07T15:20:11.355Z,2.85
2023-03-07T15:22:38.566Z,2.90
2023-03-07T15:25:17.180Z,2.72
2023-03-07T15:27:44.197Z,2.55
2023-03-07T15:30:21.548Z,2.60
2023-03-07T15:33:06.688Z,3.88
2023-03-07T15:35:33.542Z,3.10
2023-03-07T15:40:40.375Z,3.67
2023-03-07T15:43:20.128Z,3.30
2023-03-07T15:46:00.207Z,3.42
2023-03-07T15:48:26.995Z,2.90
2023-03-07T15:50:55.555Z,3.10
2023-03-07T15:56:07.199Z,2.95
2023-03-07T15:58:44.134Z,2.95
2023-03-07T16:04:03.875Z,2.70
2023-03-07T16:06:31.813Z,2.08
2023-03-07T16:09:03.166Z,2.20
2023-03-07T16:11:29.867Z,2.00
2023-03-07T16:14:07.301Z,2.13
2023-03-07T16:16:34.769Z,1.90
2023-03-07T16:19:01.319Z,2.20
2023-03-07T16:21:39.429Z,2.17
2023-03-07T16:26:45.339Z,2.20
2023-03-07T16:29:22.401Z,2.22
2023-03-07T16:34:37.386Z,2.22
2023-03-07T16:39:43.162Z,2.33
2023-03-07T16:44:42.207Z,2.35
2023-03-07T16:47:18.603Z,2.50
2023-03-07T16:49:45.065Z,2.60
2023-03-07T16:52:11.941Z,2.65
2023-03-07T16:54:39.188Z,2.63
2023-03-07T16:57:06.297Z,2.72
2023-03-07T16:59:39.657Z,2.80
2023-03-07T17:02:14.762Z,2.47
2023-03-07T17:07:21.345Z,2.88
2023-03-07T17:12:26.164Z,3.17
2023-03-07T17:14:52.672Z,2.58
2023-03-07T17:17:27.597Z,3.45
2023-03-07T17:19:55.221Z,2.83
2023-03-07T17:22:21.753Z,3.03
2023-03-07T17:24:48.211Z,2.83
2023-03-07T17:27:16.259Z,3.10
2023-03-07T17:29:46.987Z,3.40
2023-03-07T17:32:13.468Z,3.15
2023-03-07T17:34:40.402Z,2.83
2023-03-07T17:37:07.259Z,3.17
2023-03-07T17:39:34.221Z,3.17
2023-03-07T17:42:01.116Z,3.30
2023-03-07T17:44:28.185Z,3.30
2023-03-07T17:47:18.432Z,3.47
2023-03-07T17:49:46.808Z,3.42
2023-03-07T17:52:13.343Z,3.80
2023-03-07T17:54:39.792Z,3.22
2023-03-07T17:57:07.375Z,4.05
2023-03-07T17:59:37.100Z,3.50
2023-03-07T18:02:04.187Z,3.35
2023-03-07T18:04:30.663Z,3.70
2023-03-07T18:07:01.390Z,3.55
2023-03-07T18:09:38.994Z,3.20
2023-03-07T18:12:06.265Z,3.38
2023-03-07T18:14:32.984Z,3.17
2023-03-07T18:17:01.265Z,2.67
2023-03-07T18:19:41.777Z,3.10
2023-03-07T18:24:40.732Z,3.22
2023-03-07T18:27:12.210Z,3.42
2023-03-07T18:29:38.659Z,3.25
2023-03-07T18:32:05.269Z,3.13
2023-03-07T18:37:04.478Z,2.90
2023-03-07T18:39:37.866Z,2.60
2023-03-07T18:42:04.551Z,3.08
2023-03-07T18:44:34.183Z,2.53
2023-03-07T18:47:00.776Z,3.20
2023-03-07T18:49:31.197Z,2.90
2023-03-07T18:51:57.609Z,3.25
2023-03-07T18:56:55.620Z,2.47
2023-03-07T19:01:53.452Z,2.60
2023-03-07T19:04:29.896Z,2.53
2023-03-07T19:07:03.800Z,2.78
2023-03-07T19:09:30.200Z,2.85
2023-03-07T19:11:56.642Z,2.35
2023-03-07T19:14:24.399Z,2.65
2023-03-07T19:16:51.033Z,2.60
2023-03-07T19:19:28.875Z,2.42
2023-03-07T19:22:18.042Z,2.70
2023-03-07T19:24:45.344Z,2.22
2023-03-07T19:27:14.584Z,2.20
2023-03-07T19:29:49.001Z,2.28
2023-03-07T19:32:37.568Z,2.15
2023-03-07T19:35:07.843Z,2.17
2023-03-07T19:37:37.364Z,2.00
2023-03-07T19:40:06.076Z,2.65
2023-03-07T19:42:33.353Z,2.03
2023-03-07T19:44:59.782Z,2.20
2023-03-07T19:47:36.500Z,2.40
2023-03-07T19:50:07.274Z,2.05
2023-03-07T19:52:45.243Z,2.30
2023-03-07T19:55:14.225Z,2.20
2023-03-07T19:57:40.671Z,2.30
2023-03-07T20:00:07.553Z,2.22
2023-03-07T20:02:36.611Z,2.53
2023-03-07T20:07:44.127Z,2.40
2023-03-07T20:13:04.101Z,1.90
2023-03-07T20:15:30.619Z,2.10
2023-03-07T20:18:02.618Z,2.00
2023-03-07T20:20:34.576Z,2.17
2023-03-07T20:23:01.124Z,2.28
2023-03-07T20:25:30.758Z,1.95
2023-03-07T20:28:06.413Z,1.90
2023-03-07T20:30:42.493Z,2.38
2023-03-07T20:33:12.523Z,2.25
2023-03-07T20:35:39.010Z,2.00
2023-03-07T20:38:05.520Z,1.90
2023-03-07T20:48:17.260Z,2.08
2023-03-07T20:50:59.945Z,2.53
2023-03-07T20:53:29.526Z,2.05
2023-03-07T20:56:00.136Z,1.95
2023-03-07T20:58:47.382Z,1.73
2023-03-07T21:01:23.835Z,2.00
2023-03-07T21:03:55.508Z,2.00
2023-03-07T21:06:23.272Z,2.38
2023-03-07T21:08:52.471Z,1.67
2023-03-07T21:11:35.229Z,2.13
2023-03-07T21:14:16.878Z,1.83
2023-03-07T21:17:09.158Z,1.38
2023-03-07T21:20:00.296Z,1.90
2023-03-07T21:22:40.777Z,1.40
2023-03-07T21:25:09.248Z,1.60
2023-03-07T21:27:51.763Z,1.42
2023-03-07T21:30:19.210Z,1.70
2023-03-07T21:32:52.315Z,1.75
2023-03-07T21:35:25.279Z,1.50
2023-03-07T21:38:04.306Z,1.90
2023-03-07T21:40:42.617Z,1.65
2023-03-07T21:43:22.593Z,1.30
2023-03-07T21:45:50.066Z,1.13
2023-03-07T21:48:27.367Z,1.30
2023-03-07T21:50:58.826Z,1.17
2023-03-07T21:53:39.395Z,1.60
2023-03-07T21:56:22.203Z,1.17
2023-03-07T21:58:56.480Z,1.13
2023-03-07T22:01:26.291Z,1.23
2023-03-07T22:04:05.364Z,1.20
2023-03-07T22:09:18.508Z,1.30
2023-03-07T22:11:47.046Z,1.08
2023-03-07T22:14:21.517Z,0.88
2023-03-07T22:19:23.549Z,1.20
2023-03-07T22:21:49.993Z,1.02
2023-03-07T22:24:16.425Z,1.10
2023-03-07T22:26:42.951Z,1.00
2023-03-07T22:29:09.389Z,0.90
2023-03-07T22:31:46.476Z,1.08
2023-03-07T22:34:12.984Z,1.00
2023-03-07T22:36:39.453Z,0.85
2023-03-07T22:44:17.124Z,1.00
2023-03-07T22:46:51.818Z,0.80
2023-03-07T22:49:28.988Z,1.17
2023-03-07T22:51:55.603Z,1.30
2023-03-07T22:54:34.387Z,1.00
2023-03-07T22:57:06.106Z,1.02
2023-03-07T22:59:36.716Z,0.98
2023-03-07T23:02:04.230Z,2.22
2023-03-07T23:04:38.911Z,1.10
2023-03-07T23:07:14.952Z,0.70
2023-03-07T23:09:42.266Z,0.98
2023-03-07T23:14:40.627Z,0.90
2023-03-07T23:17:16.839Z,0.80
2023-03-07T23:19:43.242Z,0.98
2023-03-07T23:24:41.888Z,0.80
2023-03-07T23:27:16.047Z,0.77
2023-03-07T23:29:43.512Z,1.00
2023-03-07T23:32:09.978Z,1.00
2023-03-07T23:34:36.562Z,0.70
2023-03-07T23:37:05.495Z,0.98
2023-03-07T23:39:31.934Z,1.00
2023-03-07T23:42:01.817Z,1.13
2023-03-07T23:44:28.227Z,1.38
2023-03-07T23:49:30.676Z,1.10
2023-03-07T23:52:06.375Z,1.25
2023-03-07T23:54:32.926Z,0.80
2023-03-07T23:57:00.837Z,0.80
2023-03-07T23:59:27.354Z,0.98
